Time;durP1;ratioP1;P1;durP2;ratioP2;P2;SDS_P1;SDS_P2;PMS_P1;PMS_P2;Temp;Humidity;BMP_temperature;BMP_pressure;BME280_temperature;BME280_humidity;BME280_pressure;Samples;Min_cycle;Max_cycle;Signal;HPM_P1;HPM_P2
2023/09/10 00:01:05;;;;;;;7.35;6.60;;;23.70;70.50;;;;;;5011976;28;20034;-86
2023/09/10 00:03:32;;;;;;;8.15;7.10;;;23.60;70.80;;;;;;5010984;28;20515;-87
2023/09/10 00:05:59;;;;;;;7.07;6.38;;;23.60;71.10;;;;;;5010653;28;20036;-88
2023/09/10 00:08:25;;;;;;;7.50;6.70;;;23.50;71.30;;;;;;5008325;28;20052;-87
2023/09/10 00:10:51;;;;;;;8.80;6.78;;;23.50;71.50;;;;;;5004759;28;20014;-86
2023/09/10 00:13:17;;;;;;;9.25;8.05;;;23.50;71.90;;;;;;5009222;28;20470;-86
2023/09/10 00:15:42;;;;;;;10.13;7.85;;;23.50;72.40;;;;;;5010847;28;20030;-85
2023/09/10 00:18:08;;;;;;;8.25;7.40;;;23.40;72.60;;;;;;5018428;28;20025;-85
2023/09/10 00:20:34;;;;;;;8.50;7.60;;;23.40;72.70;;;;;;5019678;28;20397;-85
2023/09/10 00:22:59;;;;;;;8.43;7.40;;;23.40;73.10;;;;;;5023265;28;20116;-84
2023/09/10 00:25:25;;;;;;;8.38;7.13;;;23.40;73.30;;;;;;5011281;28;20021;-86
2023/09/10 00:27:51;;;;;;;8.68;7.78;;;23.40;73.30;;;;;;5023253;28;20021;-85
2023/09/10 00:30:16;;;;;;;9.52;8.35;;;23.40;73.60;;;;;;5000576;28;20018;-85
2023/09/10 00:32:42;;;;;;;9.73;8.73;;;23.40;73.90;;;;;;5022784;28;20026;-84
2023/09/10 00:35:08;;;;;;;11.57;8.15;;;23.30;74.10;;;;;;5006829;28;20115;-84
2023/09/10 00:37:34;;;;;;;9.98;8.82;;;23.30;74.20;;;;;;5013960;28;20067;-84
2023/09/10 00:39:59;;;;;;;11.13;8.88;;;23.30;74.40;;;;;;5011331;28;20026;-86
2023/09/10 00:42:25;;;;;;;11.02;9.23;;;23.30;74.50;;;;;;5010936;28;20470;-86
2023/09/10 00:44:50;;;;;;;12.05;9.32;;;23.20;75.30;;;;;;5008927;28;20029;-87
2023/09/10 00:47:16;;;;;;;9.73;8.68;;;23.20;74.80;;;;;;5009785;28;20497;-85
2023/09/10 00:49:43;;;;;;;10.48;9.32;;;23.20;74.80;;;;;;5005862;28;20026;-85
2023/09/10 00:52:10;;;;;;;9.90;8.90;;;23.20;74.80;;;;;;5001236;28;20050;-84
2023/09/10 00:54:37;;;;;;;11.27;9.20;;;23.20;74.80;;;;;;5006270;28;20026;-84
2023/09/10 00:57:03;;;;;;;10.65;8.07;;;23.20;74.80;;;;;;5007563;28;20014;-84
2023/09/10 00:59:30;;;;;;;8.82;7.93;;;23.20;74.80;;;;;;4999843;28;20026;-85
2023/09/10 01:01:58;;;;;;;8.68;7.78;;;23.20;74.90;;;;;;5006850;28;20032;-89
2023/09/10 01:04:23;;;;;;;9.70;8.48;;;23.20;74.90;;;;;;5015046;28;20127;-82
2023/09/10 01:06:51;;;;;;;9.27;8.13;;;23.10;75.30;;;;;;5010396;28;20494;-85
2023/09/10 01:09:17;;;;;;;10.40;8.82;;;23.20;75.10;;;;;;5025288;28;20076;-85
2023/09/10 01:11:57;;;;;;;9.90;8.48;;;23.10;75.20;;;;;;5009464;28;20018;-85
2023/09/10 01:14:31;;;;;;;10.57;9.43;;;23.00;75.30;;;;;;4993324;28;20482;-85
2023/09/10 01:17:38;;;;;;;10.38;9.27;;;23.00;75.50;;;;;;5011286;28;20037;-84
2023/09/10 01:20:41;;;;;;;10.85;8.35;;;23.00;75.60;;;;;;5014706;28;20378;-84
2023/09/10 01:23:17;;;;;;;12.13;9.45;;;23.00;75.70;;;;;;5018106;28;20549;-84
2023/09/10 01:25:44;;;;;;;8.98;8.07;;;22.90;75.90;;;;;;5010472;28;20030;-83
2023/09/10 01:28:10;;;;;;;10.52;9.50;;;22.90;76.00;;;;;;5003033;28;20633;-83
2023/09/10 01:30:36;;;;;;;9.75;8.10;;;22.90;76.10;;;;;;5016502;28;20121;-83
2023/09/10 01:33:27;;;;;;;11.98;10.38;;;23.00;76.10;;;;;;5003149;28;20259;-83
2023/09/10 01:36:05;;;;;;;10.30;9.30;;;22.90;76.00;;;;;;5006579;28;20072;-84
2023/09/10 01:38:50;;;;;;;10.50;9.40;;;22.80;76.30;;;;;;5004682;28;20021;-84
2023/09/10 01:41:17;;;;;;;12.48;11.18;;;22.80;76.50;;;;;;5008167;28;20088;-84
2023/09/10 01:43:44;;;;;;;10.15;9.15;;;22.70;77.00;;;;;;5009035;28;20037;-84
2023/09/10 01:46:12;;;;;;;11.13;9.02;;;22.70;77.00;;;;;;5007362;28;20690;-84
2023/09/10 01:48:37;;;;;;;11.10;10.00;;;22.70;76.90;;;;;;5008783;28;20634;-86
2023/09/10 01:51:03;;;;;;;12.23;10.95;;;22.60;77.00;;;;;;5002905;28;20018;-85
2023/09/10 01:53:29;;;;;;;12.88;11.50;;;22.60;77.20;;;;;;5005006;28;20010;-84
2023/09/10 01:55:55;;;;;;;9.93;8.85;;;22.50;77.30;;;;;;5004553;28;20103;-84
2023/09/10 01:58:21;;;;;;;11.20;10.10;;;22.60;77.30;;;;;;5013506;28;21910;-85
2023/09/10 02:00:47;;;;;;;10.18;9.18;;;22.50;77.30;;;;;;5005075;28;20022;-86
2023/09/10 02:03:13;;;;;;;13.70;10.93;;;22.60;77.50;;;;;;5009257;28;20037;-85
2023/09/10 02:05:41;;;;;;;12.32;10.85;;;22.50;77.60;;;;;;5012912;28;20025;-85
2023/09/10 02:08:06;;;;;;;12.73;9.57;;;22.50;77.70;;;;;;5011189;28;20052;-85
2023/09/10 02:10:33;;;;;;;12.00;10.77;;;22.50;77.80;;;;;;5001899;28;20018;-85
2023/09/10 02:12:58;;;;;;;10.35;8.95;;;22.50;78.00;;;;;;5008250;28;20055;-85
2023/09/10 02:15:24;;;;;;;10.90;9.80;;;22.50;77.90;;;;;;5021111;28;20036;-85
2023/09/10 02:17:50;;;;;;;10.27;9.27;;;22.50;77.80;;;;;;5005745;28;20026;-85
2023/09/10 02:20:15;;;;;;;10.90;9.80;;;22.50;77.80;;;;;;5022463;28;20044;-85
2023/09/10 02:22:41;;;;;;;11.75;10.48;;;22.50;77.90;;;;;;5013618;28;20422;-85
2023/09/10 02:25:08;;;;;;;11.00;9.18;;;22.50;77.80;;;;;;5012793;28;20695;-86
2023/09/10 02:27:35;;;;;;;12.90;11.60;;;22.50;77.90;;;;;;5011530;28;20037;-86
2023/09/10 02:30:03;;;;;;;11.32;10.23;;;22.50;78.10;;;;;;5017017;28;20023;-85
2023/09/10 02:32:29;;;;;;;10.93;9.25;;;22.40;78.10;;;;;;5009403;28;20061;-86
2023/09/10 02:34:55;;;;;;;13.00;11.18;;;22.50;78.00;;;;;;5018607;28;20081;-86
2023/09/10 02:37:20;;;;;;;10.48;9.35;;;22.50;77.90;;;;;;5008319;28;20030;-86
2023/09/10 02:39:46;;;;;;;10.70;9.60;;;22.50;77.80;;;;;;5013001;28;20018;-85
2023/09/10 02:42:12;;;;;;;11.40;9.40;;;22.50;77.80;;;;;;5006048;28;20041;-87
2023/09/10 02:44:38;;;;;;;11.07;9.98;;;22.50;77.60;;;;;;5011072;28;20021;-87
2023/09/10 02:47:03;;;;;;;10.05;8.98;;;22.50;77.50;;;;;;5016351;28;20029;-85
2023/09/10 02:49:29;;;;;;;9.40;8.48;;;22.50;77.30;;;;;;5011456;28;20029;-84
2023/09/10 02:51:55;;;;;;;11.00;9.90;;;22.50;77.30;;;;;;5008472;28;20022;-85
2023/09/10 02:54:20;;;;;;;10.80;9.70;;;22.50;77.20;;;;;;5010214;28;20037;-85
2023/09/10 02:56:46;;;;;;;8.57;7.78;;;22.50;77.20;;;;;;5012733;28;20389;-85
2023/09/10 02:59:19;;;;;;;9.68;8.68;;;22.50;77.10;;;;;;5011186;28;20056;-84
2023/09/10 03:01:45;;;;;;;10.70;9.60;;;22.50;77.00;;;;;;5010240;28;20034;-89
2023/09/10 03:04:11;;;;;;;10.05;7.97;;;22.50;76.90;;;;;;5020495;28;20041;-85
2023/09/10 03:06:36;;;;;;;9.20;8.30;;;22.50;76.80;;;;;;5000465;28;20382;-87
2023/09/10 03:09:02;;;;;;;8.93;7.82;;;22.50;76.70;;;;;;5006654;28;20018;-87
2023/09/10 03:11:31;;;;;;;10.82;9.73;;;22.50;76.60;;;;;;5011503;28;20026;-88
2023/09/10 03:13:56;;;;;;;10.88;9.02;;;22.50;76.50;;;;;;5019257;28;20017;-87
2023/09/10 03:16:24;;;;;;;12.25;8.88;;;22.50;76.40;;;;;;5017928;28;20034;-88
2023/09/10 03:18:50;;;;;;;10.80;9.52;;;22.50;76.40;;;;;;5020077;28;20018;-88
2023/09/10 03:21:15;;;;;;;10.30;9.27;;;22.40;76.20;;;;;;5014782;28;20032;-86
2023/09/10 03:23:41;;;;;;;10.35;9.35;;;22.50;76.30;;;;;;5022435;28;20122;-86
2023/09/10 03:26:11;;;;;;;11.07;9.88;;;22.50;76.20;;;;;;5014310;28;20367;-86
2023/09/10 03:28:40;;;;;;;12.27;10.98;;;22.40;76.10;;;;;;5001245;28;20054;-87
2023/09/10 03:31:06;;;;;;;14.48;12.98;;;22.40;76.30;;;;;;5006049;28;20030;-87
2023/09/10 03:33:31;;;;;;;12.68;11.38;;;22.40;76.50;;;;;;5010524;28;20018;-86
2023/09/10 03:35:57;;;;;;;12.00;10.32;;;22.30;76.70;;;;;;5011664;28;20069;-86
2023/09/10 03:38:23;;;;;;;12.20;10.98;;;22.30;76.70;;;;;;5010468;28;20084;-86
2023/09/10 03:40:48;;;;;;;12.40;11.10;;;22.30;76.80;;;;;;5009906;28;20026;-86
2023/09/10 03:43:15;;;;;;;11.73;10.40;;;22.30;76.70;;;;;;5002606;28;20045;-87
2023/09/10 03:45:41;;;;;;;10.10;9.10;;;22.30;76.60;;;;;;5012316;28;20036;-86
2023/09/10 03:48:06;;;;;;;12.55;10.05;;;22.30;76.50;;;;;;5006225;28;20399;-87
2023/09/10 03:50:32;;;;;;;10.80;9.70;;;22.30;76.50;;;;;;5011583;28;20030;-87
2023/09/10 03:52:58;;;;;;;10.57;9.48;;;22.30;76.60;;;;;;5000217;28;20461;-87
2023/09/10 03:55:23;;;;;;;11.07;9.90;;;22.30;76.60;;;;;;5004010;28;20030;-87
2023/09/10 03:57:49;;;;;;;11.15;9.85;;;22.30;76.60;;;;;;5010725;28;20482;-89
2023/09/10 04:00:14;;;;;;;10.88;9.77;;;22.30;76.60;;;;;;5019039;28;20022;-88
2023/09/10 04:02:40;;;;;;;16.25;11.20;;;22.20;76.60;;;;;;5029327;28;20018;-87
2023/09/10 04:05:08;;;;;;;12.55;11.25;;;22.20;76.70;;;;;;5012624;28;20037;-88
2023/09/10 04:07:34;;;;;;;12.05;10.85;;;22.20;76.80;;;;;;5013426;28;20045;-88
2023/09/10 04:09:59;;;;;;;10.55;9.40;;;22.20;76.80;;;;;;5008379;28;20018;-87
2023/09/10 04:12:25;;;;;;;11.98;10.43;;;22.30;76.70;;;;;;5011023;28;20112;-87
2023/09/10 04:14:50;;;;;;;12.95;11.68;;;22.30;76.60;;;;;;5008588;28;20026;-87
2023/09/10 04:17:16;;;;;;;12.68;11.27;;;22.20;76.50;;;;;;4995609;28;20093;-87
2023/09/10 04:19:43;;;;;;;12.98;11.60;;;22.20;76.60;;;;;;5016623;28;20118;-88
2023/09/10 04:22:09;;;;;;;12.30;9.68;;;22.20;77.50;;;;;;5019733;28;20108;-88
2023/09/10 04:24:35;;;;;;;12.13;10.10;;;22.20;76.90;;;;;;5013005;28;20104;-86
2023/09/10 04:27:00;;;;;;;12.45;11.25;;;22.20;76.90;;;;;;5015729;28;20030;-86
2023/09/10 04:29:26;;;;;;;12.40;11.10;;;22.20;76.90;;;;;;5010852;28;20115;-86
2023/09/10 04:31:52;;;;;;;12.68;11.38;;;22.20;77.00;;;;;;5009818;28;20240;-86
2023/09/10 04:34:17;;;;;;;12.75;11.43;;;22.20;77.10;;;;;;5009398;28;20474;-85
2023/09/10 04:36:43;;;;;;;10.93;9.80;;;22.20;77.00;;;;;;5007183;28;20062;-85
2023/09/10 04:39:09;;;;;;;12.52;11.07;;;22.20;77.20;;;;;;5008837;28;20036;-85
2023/09/10 04:41:36;;;;;;;11.13;9.98;;;22.10;77.10;;;;;;5009456;28;20120;-84
2023/09/10 04:44:02;;;;;;;12.68;11.38;;;22.20;77.10;;;;;;5009108;28;20034;-85
2023/09/10 04:46:28;;;;;;;13.35;11.82;;;22.10;77.20;;;;;;5009450;28;20061;-85
2023/09/10 04:48:54;;;;;;;12.43;11.13;;;22.10;77.30;;;;;;5009696;28;20030;-84
2023/09/10 04:51:19;;;;;;;12.27;11.07;;;22.10;77.30;;;;;;5007287;28;20036;-84
2023/09/10 04:53:45;;;;;;;11.93;10.68;;;22.10;77.20;;;;;;5004795;28;20054;-84
2023/09/10 04:56:11;;;;;;;12.30;11.10;;;22.10;77.20;;;;;;5005570;28;20106;-86
2023/09/10 04:58:36;;;;;;;13.43;12.15;;;22.10;77.20;;;;;;5008697;28;20350;-85
2023/09/10 05:01:02;;;;;;;11.32;9.93;;;22.10;77.20;;;;;;5006344;28;20048;-85
2023/09/10 05:03:27;;;;;;;11.38;10.27;;;22.20;77.00;;;;;;5002843;28;20034;-85
2023/09/10 05:06:01;;;;;;;11.85;10.65;;;22.20;76.80;;;;;;5003458;28;20054;-85
2023/09/10 05:08:27;;;;;;;11.50;10.20;;;22.20;76.80;;;;;;5002642;28;20061;-85
2023/09/10 05:10:54;;;;;;;11.35;10.15;;;22.20;76.70;;;;;;5006840;28;20032;-85
2023/09/10 05:13:20;;;;;;;11.05;9.88;;;22.20;76.70;;;;;;5004357;28;20022;-85
2023/09/10 05:15:48;;;;;;;11.38;10.18;;;22.20;76.70;;;;;;5011166;28;20489;-85
2023/09/10 05:18:15;;;;;;;11.85;10.20;;;22.30;76.60;;;;;;4999881;28;20038;-85
2023/09/10 05:20:41;;;;;;;9.77;8.48;;;22.20;76.60;;;;;;5003519;28;20033;-85
2023/09/10 05:23:06;;;;;;;9.93;8.93;;;22.30;76.70;;;;;;5009028;28;20079;-85
2023/09/10 05:25:36;;;;;;;10.30;9.25;;;22.30;76.20;;;;;;5004263;28;20433;-84
2023/09/10 05:28:03;;;;;;;12.15;10.65;;;22.40;76.00;;;;;;5011088;28;20029;-85
2023/09/10 05:30:29;;;;;;;10.95;9.80;;;22.40;75.90;;;;;;5008548;28;20022;-84
2023/09/10 05:32:56;;;;;;;11.68;10.00;;;22.40;75.80;;;;;;5009843;28;20115;-84
2023/09/10 05:35:21;;;;;;;10.88;9.77;;;22.40;75.60;;;;;;5014021;28;20026;-83
2023/09/10 05:37:47;;;;;;;10.88;9.23;;;22.50;75.50;;;;;;5010794;28;20029;-83
2023/09/10 05:40:12;;;;;;;10.73;9.63;;;22.50;75.30;;;;;;5009222;28;20025;-83
2023/09/10 05:42:38;;;;;;;9.75;8.48;;;22.60;75.10;;;;;;5008031;28;20402;-83
2023/09/10 05:45:04;;;;;;;10.13;9.18;;;22.70;74.90;;;;;;4999280;28;20033;-85
2023/09/10 05:47:29;;;;;;;11.00;9.90;;;22.70;74.80;;;;;;5010461;28;20470;-84
2023/09/10 05:49:55;;;;;;;9.45;8.45;;;22.90;74.60;;;;;;5004761;28;20462;-85
2023/09/10 05:52:20;;;;;;;13.63;11.27;;;23.20;74.00;;;;;;5009263;28;20030;-86
2023/09/10 05:54:46;;;;;;;11.70;10.50;;;23.50;73.20;;;;;;5009723;28;20433;-84
2023/09/10 05:57:12;;;;;;;10.95;9.85;;;23.80;72.50;;;;;;5007217;28;20057;-86
2023/09/10 05:59:37;;;;;;;11.23;10.02;;;24.00;71.70;;;;;;5016367;28;20105;-86
2023/09/10 06:02:03;;;;;;;11.98;10.70;;;24.30;70.90;;;;;;5003782;28;20097;-85
2023/09/10 06:04:29;;;;;;;10.30;9.20;;;24.60;70.20;;;;;;5003532;28;20026;-84
2023/09/10 06:06:54;;;;;;;10.05;8.13;;;24.90;69.40;;;;;;5004725;28;20080;-83
2023/09/10 06:09:20;;;;;;;15.13;11.88;;;25.30;68.60;;;;;;5008554;28;20108;-83
2023/09/10 06:11:45;;;;;;;12.85;11.45;;;25.50;67.50;;;;;;5001890;28;20037;-84
2023/09/10 06:14:11;;;;;;;15.35;11.18;;;25.80;67.00;;;;;;5008371;28;20046;-84
2023/09/10 06:16:36;;;;;;;9.85;8.88;;;26.20;66.30;;;;;;5003855;28;20041;-84
2023/09/10 06:19:03;;;;;;;10.18;9.18;;;26.50;65.60;;;;;;5012241;28;20030;-84
2023/09/10 06:21:29;;;;;;;11.00;9.90;;;26.90;65.00;;;;;;5015630;28;20346;-82
2023/09/10 06:23:55;;;;;;;11.48;10.13;;;27.10;64.20;;;;;;5009373;28;20018;-83
2023/09/10 06:26:20;;;;;;;10.48;9.15;;;27.40;63.60;;;;;;4998147;28;20031;-84
2023/09/10 06:28:46;;;;;;;14.45;11.88;;;27.60;62.70;;;;;;5005423;28;20144;-84
2023/09/10 06:31:12;;;;;;;11.18;10.05;;;27.70;62.40;;;;;;5009182;28;20030;-84
2023/09/10 06:33:37;;;;;;;10.30;9.18;;;27.80;62.10;;;;;;5020665;28;20406;-84
2023/09/10 06:36:03;;;;;;;11.15;10.05;;;28.10;61.90;;;;;;5012256;28;20029;-84
2023/09/10 06:38:29;;;;;;;11.13;9.85;;;28.40;61.20;;;;;;5010974;28;20033;-84
2023/09/10 06:40:55;;;;;;;11.02;9.90;;;28.80;60.50;;;;;;5012045;28;20121;-84
2023/09/10 06:43:20;;;;;;;11.68;10.57;;;28.90;59.90;;;;;;5015019;28;20485;-84
2023/09/10 06:45:46;;;;;;;11.90;10.63;;;29.00;59.40;;;;;;5016455;28;20021;-84
2023/09/10 06:48:11;;;;;;;11.05;9.93;;;29.20;59.20;;;;;;5008472;28;20040;-84
2023/09/10 06:50:37;;;;;;;12.15;9.60;;;29.40;58.90;;;;;;5009678;28;20021;-85
2023/09/10 06:53:03;;;;;;;12.35;9.85;;;29.70;58.40;;;;;;5007915;28;20022;-85
2023/09/10 06:55:28;;;;;;;14.73;11.23;;;30.10;58.60;;;;;;5008532;28;20056;-85
2023/09/10 06:57:55;;;;;;;12.77;10.90;;;30.10;57.20;;;;;;5013657;28;20042;-85
2023/09/10 07:00:21;;;;;;;10.70;9.20;;;30.30;56.90;;;;;;5009767;28;20029;-86
2023/09/10 07:02:46;;;;;;;13.18;11.65;;;30.40;56.80;;;;;;5006198;28;20040;-85
2023/09/10 07:05:12;;;;;;;12.35;11.07;;;30.20;56.60;;;;;;5020266;28;20067;-85
2023/09/10 07:07:37;;;;;;;12.35;11.05;;;30.20;56.40;;;;;;5010172;28;20037;-85
2023/09/10 07:10:03;;;;;;;12.55;10.80;;;29.90;56.70;;;;;;5019154;28;20018;-84
2023/09/10 07:12:30;;;;;;;13.57;10.82;;;29.80;56.90;;;;;;5006615;28;20417;-84
2023/09/10 07:14:55;;;;;;;10.90;9.80;;;29.70;57.30;;;;;;5009980;28;20466;-84
2023/09/10 07:17:21;;;;;;;13.00;11.52;;;29.60;57.40;;;;;;5008536;28;20022;-84
2023/09/10 07:19:46;;;;;;;12.80;11.52;;;29.50;57.70;;;;;;5009358;28;20030;-84
2023/09/10 07:22:13;;;;;;;11.68;9.98;;;29.10;58.40;;;;;;5011436;28;20034;-83
2023/09/10 07:24:39;;;;;;;13.52;12.15;;;28.80;60.10;;;;;;5012472;28;20029;-84
2023/09/10 07:27:05;;;;;;;13.95;12.30;;;28.50;60.30;;;;;;5009295;28;20030;-84
2023/09/10 07:29:31;;;;;;;12.88;11.55;;;28.10;61.00;;;;;;5010494;28;20616;-83
2023/09/10 07:31:56;;;;;;;13.00;11.70;;;28.00;61.70;;;;;;5011222;28;20014;-85
2023/09/10 07:34:22;;;;;;;13.13;11.85;;;27.80;62.30;;;;;;5012560;28;20030;-84
2023/09/10 07:36:48;;;;;;;13.00;11.70;;;27.60;62.70;;;;;;5009789;28;20033;-84
2023/09/10 07:39:14;;;;;;;15.02;13.52;;;27.40;63.30;;;;;;5010362;28;20029;-85
2023/09/10 07:41:39;;;;;;;14.80;13.30;;;27.30;63.70;;;;;;5011175;28;20030;-85
2023/09/10 07:44:05;;;;;;;12.35;11.15;;;27.20;64.30;;;;;;5007623;28;20533;-84
2023/09/10 07:46:33;;;;;;;12.70;11.40;;;27.20;64.50;;;;;;5007237;28;20057;-85
2023/09/10 07:48:59;;;;;;;14.68;13.10;;;27.20;64.70;;;;;;5009417;28;20029;-85
2023/09/10 07:51:31;;;;;;;13.40;12.10;;;27.10;65.00;;;;;;5006535;28;20026;-84
2023/09/10 07:53:57;;;;;;;16.08;14.32;;;27.10;65.30;;;;;;5007362;28;20101;-85
2023/09/10 07:56:23;;;;;;;17.58;15.77;;;26.90;65.60;;;;;;5004567;28;20125;-84
2023/09/10 07:58:48;;;;;;;16.88;15.07;;;26.90;66.30;;;;;;5009662;28;20030;-85
2023/09/10 08:01:14;;;;;;;15.10;13.50;;;26.90;66.50;;;;;;5006173;28;20100;-86
2023/09/10 08:03:41;;;;;;;16.02;14.43;;;26.90;66.60;;;;;;5010546;28;20026;-85
2023/09/10 08:06:07;;;;;;;18.88;16.38;;;26.90;66.80;;;;;;5006396;28;20038;-85
2023/09/10 08:09:08;;;;;;;15.55;13.95;;;26.80;67.20;;;;;;5009363;28;20117;-85
2023/09/10 08:11:54;;;;;;;17.70;15.80;;;26.80;67.30;;;;;;5015485;28;20125;-85
2023/09/10 08:15:31;;;;;;;16.65;14.95;;;26.70;67.40;;;;;;5008346;28;20497;-87
2023/09/10 08:18:21;;;;;;;18.45;16.42;;;26.80;67.60;;;;;;5010369;28;20637;-86
2023/09/10 08:21:11;;;;;;;16.10;14.40;;;26.90;67.70;;;;;;5016117;28;20116;-88
2023/09/10 08:31:30;;;;;;;18.38;16.48;;;27.20;67.50;;;;;;4978472;28;20065;-85
2023/09/10 08:38:12;;;;;;;19.58;17.58;;;27.20;67.40;;;;;;4973438;28;20034;-84
2023/09/10 08:40:57;;;;;;;18.55;16.63;;;27.20;67.50;;;;;;4952131;28;20027;-84
2023/09/10 08:44:11;;;;;;;18.67;16.77;;;27.20;67.70;;;;;;4997095;28;20037;-84
2023/09/10 08:46:39;;;;;;;16.60;14.15;;;27.30;67.70;;;;;;5005550;28;20076;-84
2023/09/10 08:49:14;;;;;;;19.25;17.25;;;27.40;67.60;;;;;;5006295;28;20164;-85
2023/09/10 08:51:47;;;;;;;20.75;18.60;;;27.50;67.60;;;;;;5009964;28;20041;-85
2023/09/10 08:54:14;;;;;;;20.48;18.25;;;27.60;67.60;;;;;;5004517;28;20040;-85
2023/09/10 08:56:51;;;;;;;19.60;17.60;;;27.60;67.50;;;;;;5005351;28;20022;-86
2023/09/10 08:59:17;;;;;;;19.15;17.15;;;27.60;67.60;;;;;;5006601;28;20551;-84
2023/09/10 09:01:44;;;;;;;17.65;15.55;;;27.70;67.80;;;;;;5003293;28;20029;-84
2023/09/10 09:04:13;;;;;;;18.63;16.67;;;27.70;67.70;;;;;;5007421;28;20021;-84
2023/09/10 09:06:42;;;;;;;20.90;18.65;;;27.80;67.50;;;;;;5003426;28;20057;-85
2023/09/10 09:12:45;;;;;;;20.65;18.48;;;27.80;67.60;;;;;;5006726;28;20048;-85
2023/09/10 09:15:12;;;;;;;17.58;15.73;;;27.80;67.40;;;;;;5004071;28;20055;-86
2023/09/10 09:17:38;;;;;;;23.20;18.65;;;27.90;67.40;;;;;;5012558;28;20056;-87
2023/09/10 09:20:10;;;;;;;23.52;20.70;;;27.90;67.20;;;;;;5010427;28;20041;-86
2023/09/10 09:22:39;;;;;;;;;;;28.00;67.30;;;;;;5014143;28;20171;-88
2023/09/10 09:25:06;;;;;;;17.63;15.75;;;28.00;67.10;;;;;;5006125;28;19913;-88
2023/09/10 09:27:32;;;;;;;23.00;18.75;;;28.10;66.90;;;;;;5003791;28;20476;-86
2023/09/10 09:29:59;;;;;;;24.13;20.63;;;28.20;66.80;;;;;;5008566;28;20065;-85
2023/09/10 09:32:26;;;;;;;20.08;18.02;;;28.20;66.30;;;;;;5009545;28;20049;-87
2023/09/10 09:34:51;;;;;;;20.45;18.15;;;28.20;66.10;;;;;;5010220;28;20546;-87
2023/09/10 09:37:19;;;;;;;18.33;16.52;;;28.30;66.10;;;;;;5008854;28;20057;-88
2023/09/10 09:39:45;;;;;;;23.05;20.40;;;28.40;66.00;;;;;;5006293;28;20034;-87
2023/09/10 09:42:11;;;;;;;21.42;19.13;;;28.30;65.50;;;;;;5010116;28;20033;-88
2023/09/10 09:44:37;;;;;;;21.13;18.80;;;28.40;65.40;;;;;;5007129;28;20425;-88
2023/09/10 09:47:03;;;;;;;17.90;15.85;;;28.30;65.30;;;;;;5009743;28;20049;-90
2023/09/10 09:49:29;;;;;;;18.02;15.57;;;28.40;65.40;;;;;;5013385;28;20390;-89
2023/09/10 09:51:56;;;;;;;20.20;17.95;;;28.40;65.10;;;;;;5014416;28;20014;-90
2023/09/10 09:54:24;;;;;;;19.67;17.58;;;28.50;64.90;;;;;;5011735;28;20049;-90
2023/09/10 09:56:50;;;;;;;19.60;17.10;;;28.50;64.60;;;;;;5010042;28;20029;-89
2023/09/10 09:59:16;;;;;;;18.58;15.60;;;28.50;64.40;;;;;;5013523;28;20046;-89
2023/09/10 10:01:42;;;;;;;17.55;15.60;;;28.50;64.40;;;;;;5005178;28;20483;-89
2023/09/10 10:04:09;;;;;;;19.10;15.30;;;28.60;64.00;;;;;;5007126;28;20113;-89
2023/09/10 10:06:36;;;;;;;16.13;13.77;;;28.60;63.80;;;;;;5009901;28;20034;-89
2023/09/10 10:09:03;;;;;;;16.75;12.48;;;28.70;64.00;;;;;;5008743;28;20446;-90
2023/09/10 10:11:32;;;;;;;18.20;15.27;;;28.80;63.80;;;;;;5010079;28;20018;-90
2023/09/10 10:13:59;;;;;;;16.50;14.02;;;28.80;62.40;;;;;;5010997;28;20184;-91
2023/09/10 10:16:29;;;;;;;14.90;12.35;;;28.70;62.60;;;;;;5009630;28;20056;-86
2023/09/10 10:18:55;;;;;;;13.93;11.40;;;28.80;62.80;;;;;;5006741;28;20061;-86
2023/09/10 10:21:22;;;;;;;12.85;11.43;;;28.90;62.90;;;;;;5011439;28;20488;-87
2023/09/10 10:23:48;;;;;;;12.38;10.80;;;29.00;62.50;;;;;;5010823;28;20030;-87
2023/09/10 10:26:16;;;;;;;10.32;8.80;;;29.10;62.20;;;;;;5011320;28;20389;-87
2023/09/10 10:28:48;;;;;;;15.77;12.40;;;29.30;62.00;;;;;;5014467;28;20149;-88
2023/09/10 10:31:21;;;;;;;11.10;9.23;;;29.30;61.50;;;;;;5014712;28;20068;-88
2023/09/10 10:33:53;;;;;;;12.90;9.20;;;29.30;61.00;;;;;;5009103;28;20060;-88
2023/09/10 10:37:02;;;;;;;10.80;7.70;;;29.40;60.30;;;;;;5016051;28;20445;-88
2023/09/10 10:39:44;;;;;;;13.43;8.57;;;29.50;60.10;;;;;;5009488;28;20117;-86
2023/09/10 10:42:15;;;;;;;11.77;8.27;;;29.60;59.60;;;;;;5036027;28;20116;-87
2023/09/10 10:44:43;;;;;;;11.70;8.43;;;29.60;59.10;;;;;;5013832;28;20028;-88
2023/09/10 10:47:17;;;;;;;12.77;10.38;;;29.70;58.50;;;;;;5022881;28;20029;-88
2023/09/10 10:49:54;;;;;;;14.60;9.35;;;29.70;58.20;;;;;;5014041;28;20104;-87
2023/09/10 10:52:46;;;;;;;11.85;8.25;;;29.70;58.10;;;;;;5018580;28;20030;-88
2023/09/10 10:55:12;;;;;;;13.85;8.63;;;29.70;58.30;;;;;;5008596;28;20084;-87
2023/09/10 10:57:39;;;;;;;14.52;9.00;;;29.80;58.20;;;;;;5012725;28;20048;-89
2023/09/10 11:00:09;;;;;;;11.95;7.63;;;29.90;58.40;;;;;;5030597;28;20121;-89
2023/09/10 11:02:37;;;;;;;10.80;8.40;;;30.00;58.50;;;;;;5018241;28;20397;-89
2023/09/10 11:05:08;;;;;;;13.07;9.60;;;30.10;58.50;;;;;;5012969;28;20478;-88
2023/09/10 11:07:34;;;;;;;;;;;30.20;57.90;;;;;;5015332;28;20041;-88
2023/09/10 11:10:19;;;;;;;16.55;11.00;;;30.10;58.00;;;;;;5010534;28;19905;-88
2023/09/10 11:13:07;;;;;;;13.15;9.82;;;30.00;58.20;;;;;;5013682;28;20414;-89
2023/09/10 11:15:33;;;;;;;15.43;9.43;;;30.10;58.60;;;;;;5010341;28;20053;-89
2023/09/10 11:21:53;;;;;;;11.63;8.40;;;30.20;57.90;;;;;;5012466;28;20080;-88
2023/09/10 11:24:20;;;;;;;11.77;9.27;;;30.30;58.30;;;;;;5005791;28;20478;-88
2023/09/10 11:26:46;;;;;;;12.23;8.45;;;30.30;58.60;;;;;;5010663;28;20640;-87
2023/09/10 11:29:19;;;;;;;9.43;7.10;;;30.40;58.40;;;;;;5010352;28;20025;-88
2023/09/10 11:31:51;;;;;;;11.95;7.85;;;30.50;58.20;;;;;;5012627;28;20497;-88
2023/09/10 11:36:54;;;;;;;11.75;9.05;;;30.80;57.60;;;;;;5008771;28;20025;-87
2023/09/10 11:39:21;;;;;;;11.48;8.90;;;30.90;57.70;;;;;;5010304;28;20029;-86
2023/09/10 11:41:48;;;;;;;10.90;8.15;;;31.00;57.60;;;;;;5014910;28;20029;-87
2023/09/10 11:44:14;;;;;;;12.93;9.43;;;31.20;57.40;;;;;;5009826;28;20061;-87
2023/09/10 11:46:40;;;;;;;10.75;7.57;;;31.20;56.50;;;;;;5008031;28;20411;-87
2023/09/10 11:49:06;;;;;;;12.05;7.35;;;31.20;56.50;;;;;;5011552;28;20084;-88
2023/09/10 11:51:32;;;;;;;9.55;7.20;;;31.10;56.30;;;;;;5009234;28;20286;-87
2023/09/10 11:53:59;;;;;;;11.75;7.40;;;31.30;56.40;;;;;;5030808;28;20017;-86
2023/09/10 11:56:27;;;;;;;13.88;7.32;;;31.50;56.50;;;;;;5006190;28;20033;-87
2023/09/10 11:58:53;;;;;;;10.60;6.80;;;31.60;56.40;;;;;;5007741;28;20052;-89
2023/09/10 12:01:21;;;;;;;12.02;7.03;;;31.80;56.20;;;;;;5010125;28;20427;-88
2023/09/10 12:03:47;;;;;;;10.20;6.65;;;31.80;55.50;;;;;;5011459;28;20447;-87
2023/09/10 12:06:13;;;;;;;12.15;6.53;;;31.90;55.00;;;;;;5012120;28;20057;-87
2023/09/10 12:08:38;;;;;;;9.27;6.07;;;31.90;54.40;;;;;;5011199;28;20026;-87
2023/09/10 12:11:08;;;;;;;10.65;6.60;;;32.00;54.70;;;;;;5010526;28;20048;-87
2023/09/10 12:13:37;;;;;;;9.88;6.40;;;31.90;54.50;;;;;;5015685;28;20112;-88
2023/09/10 12:16:04;;;;;;;7.70;5.93;;;32.00;54.50;;;;;;5012733;28;20528;-87
2023/09/10 12:18:31;;;;;;;8.50;5.80;;;32.10;54.40;;;;;;5013673;28;20029;-87
2023/09/10 12:21:00;;;;;;;8.13;5.70;;;32.20;54.10;;;;;;5012105;28;20022;-86
2023/09/10 12:23:26;;;;;;;7.15;5.30;;;32.20;53.90;;;;;;5007641;28;20024;-87
2023/09/10 12:25:56;;;;;;;6.88;5.50;;;32.30;53.80;;;;;;5011850;28;20084;-86
2023/09/10 12:28:23;;;;;;;11.73;5.80;;;32.20;53.40;;;;;;5009499;28;20022;-87
2023/09/10 12:30:50;;;;;;;8.60;5.70;;;32.20;53.40;;;;;;5006234;28;20077;-89
2023/09/10 12:33:15;;;;;;;9.63;5.45;;;32.10;53.70;;;;;;5007148;28;20030;-88
2023/09/10 12:35:41;;;;;;;7.32;5.10;;;32.10;53.50;;;;;;5006016;28;20452;-88
2023/09/10 12:38:07;;;;;;;8.00;5.60;;;32.20;53.40;;;;;;5007362;28;20436;-87
2023/09/10 12:40:34;;;;;;;11.00;6.43;;;32.30;53.20;;;;;;5003939;28;20025;-90
2023/09/10 12:43:00;;;;;;;8.68;5.30;;;32.20;52.60;;;;;;5009104;28;20927;-86
2023/09/10 12:52:20;;;;;;;9.75;5.55;;;32.20;53.40;;;;;;4969338;28;20041;-87
2023/09/10 12:54:45;;;;;;;8.25;5.30;;;32.20;53.40;;;;;;5004062;28;20030;-87
2023/09/10 12:57:12;;;;;;;9.95;5.90;;;32.20;53.40;;;;;;5007058;28;20394;-85
2023/09/10 12:59:37;;;;;;;11.13;5.63;;;32.10;53.40;;;;;;5006363;28;20479;-87
2023/09/10 13:02:04;;;;;;;13.00;6.22;;;32.00;53.60;;;;;;5002423;28;20050;-87
2023/09/10 13:04:29;;;;;;;6.78;5.07;;;32.00;53.80;;;;;;5005030;28;20053;-87
2023/09/10 13:06:55;;;;;;;11.30;6.03;;;32.20;53.70;;;;;;5007021;28;20044;-87
2023/09/10 13:09:21;;;;;;;7.57;5.38;;;32.20;53.50;;;;;;5008218;28;20040;-88